• Join FlightAware (Why Join?)
  • Login
  • US Flag 
02:09AM EDT


 

Airport Tracker/Info


-or-


 

Live Flight TrackerFlight Track Log ✈ N5LK ✈ 07-Jan-2012 ✈ KEYW - KTCL

Flight Track Log - Related Links

Times and Time Zones

All times are in EST time to prevent confusion due to time zone crossing. See the N5LK flight status page for this flight to view local times or setup timezone preferences in your user account.

Time Position Orientation Groundspeed Altitude Reporting Facility
EST Latitude Longitude Course Direction KTS MPH feet Rate Location/Type
06:17PM 24.6220 -81.7991 360° North  Level FlightAware Approximate
06:17PM 24.7858 -81.7997 327° Northwest 255 293 8,000  Level Miami Center
06:18PM 24.8389 -81.8383 326° Northwest 242 278 9,700 1,380 Climbing Miami Center
06:19PM 24.8919 -81.8772 330° Northwest 235 270 10,900 1,200 Climbing Miami Center
06:20PM 24.9489 -81.9139 330° Northwest 235 270 12,100 1,260 Climbing Miami Center
06:21PM 25.0061 -81.9506 331° Northwest 235 270 13,400 1,200 Climbing Miami Center
06:22PM 25.0656 -81.9872 330° Northwest 240 276 14,600 1,200 Climbing Miami Center
06:23PM 25.1206 -82.0217 330° Northwest 240 276 15,900 1,320 Climbing Miami Center
06:24PM 25.1778 -82.0586 330° Northwest 240 276 17,300 1,020 Climbing Miami Center
06:25PM 25.2308 -82.0931 332° Northwest 235 270 18,000 780 Climbing Miami Center
06:26PM 25.2842 -82.1250 330° Northwest 229 264 18,900 900 Climbing Miami Center
06:27PM 25.3372 -82.1594 331° Northwest 229 264 19,900 900 Climbing Miami Center
06:28PM 25.4025 -82.1992 330° Northwest 229 264 20,700 780 Climbing Miami Center
06:29PM 25.4575 -82.2339 329° Northwest 229 264 21,500 720 Climbing Miami Center
06:30PM 25.5167 -82.2733 330° Northwest 229 264 22,200 600 Climbing Miami Center
06:31PM 25.5739 -82.3103 331° Northwest 234 269 22,800 600 Climbing Miami Center
06:32PM 25.6350 -82.3478 329° Northwest 240 276 23,400 600 Climbing Miami Center
06:33PM 25.6942 -82.3872 331° Northwest 247 284 24,100 600 Climbing Miami Center
06:34PM 25.7553 -82.4247 331° Northwest 247 284 24,700 540 Climbing Miami Center
06:35PM 25.8164 -82.4619 327° Northwest 247 284 25,200 540 Climbing Miami Center
06:36PM 25.8775 -82.5064 332° Northwest 247 284 25,800 540 Climbing Miami Center
06:37PM 25.9325 -82.5389 329° Northwest 247 284 26,300 480 Climbing Miami Center
06:38PM 25.9956 -82.5814 330° Northwest 247 284 26,800 540 Climbing Miami Center
06:39PM 26.0586 -82.6211 332° Northwest 252 290 27,400 600 Climbing Miami Center
06:40PM 26.1219 -82.6589 330° Northwest 252 290 28,000 540 Climbing Miami Center
06:41PM 26.1869 -82.7014 328° Northwest 257 296 28,500 480 Climbing Miami Center
06:42PM 26.2519 -82.7464 331° Northwest 263 303 29,000 420 Climbing Miami Center
06:43PM 26.3131 -82.7842 330° Northwest 263 303 29,400 420 Climbing Miami Center
06:44PM 26.3803 -82.8269 330° Northwest 263 303 29,900 420 Climbing Miami Center
06:45PM 26.4472 -82.8697 330° Northwest 263 303 30,300 600 Climbing Miami Center
06:46PM 26.5103 -82.9100 328° Northwest 263 303 31,100 600 Climbing Miami Center
06:47PM 26.5711 -82.9525 331° Northwest 263 303 31,500 420 Climbing Miami Center
06:48PM 26.6361 -82.9931 330° Northwest 263 303 32,000 360 Climbing Miami Center
06:49PM 26.6992 -83.0336 330° Northwest 263 303 32,300 300 Climbing Miami Center
06:50PM 26.7642 -83.0764 329° Northwest 263 303 32,700 300 Climbing Miami Center
06:51PM 26.8292 -83.1194 330° Northwest 263 303 33,000 300 Climbing Miami Center
06:52PM 26.8961 -83.1625 330° Northwest 263 303 33,400 600 Climbing Miami Center
06:53PM 26.9589 -83.2033 327° Northwest 263 303 34,300 660 Climbing Miami Center
06:54PM 27.0175 -83.2461 331° Northwest 263 303 34,800 420 Climbing Miami Center
06:55PM 27.0783 -83.2844 331° Northwest 258 297 35,200 300 Climbing Miami Center
06:56PM 27.1394 -83.3228 329° Northwest 253 291 35,500 300 Climbing Miami Center
06:57PM 27.2000 -83.3636 328° Northwest 253 291 35,900 360 Climbing Miami Center
06:58PM 27.2608 -83.4067 331° Northwest 253 291 36,300 300 Climbing Miami Center
06:59PM 27.3256 -83.4478 331° Northwest 253 291 36,600 300 Climbing Miami Center
07:00PM 27.3886 -83.4864 329° Northwest 258 297 36,900 300 Climbing Miami Center
07:01PM 27.4492 -83.5272 329° Northwest 258 297 37,200 240 Climbing Miami Center
07:02PM 27.5139 -83.5708 330° Northwest 264 304 37,400 300 Climbing Miami Center
07:03PM 27.5767 -83.6119 329° Northwest 264 304 37,900 300 Climbing Miami Center
07:04PM 27.6414 -83.6556 330° Northwest 264 304 38,000  Climbing Miami Center
07:05PM 27.7042 -83.6967 329° Northwest 264 304 38,000  Level Miami Center
07:06PM 27.7686 -83.7406 330° Northwest 264 304 38,000  Level Miami Center
07:07PM 27.8353 -83.7844 329° Northwest 264 304 38,000  Level Miami Center
07:08PM 27.9042 -83.8308 329° Northwest 264 304 38,000  Level Miami Center
07:10PM 28.0186 -83.9081 330° Northwest 292 336 38,000  Level Jacksonville Center
07:11PM 28.0872 -83.9536 333° Northwest 292 336 38,000  Level Jacksonville Center
07:12PM 28.1536 -83.9919 329° Northwest 284 327 38,000  Level Jacksonville Center
07:13PM 28.2242 -84.0397 327° Northwest 278 320 38,000  Level Jacksonville Center
07:14PM 28.2967 -84.0925 330° Northwest 297 342 38,000  Level Jacksonville Center
07:15PM 28.3650 -84.1381 328° Northwest 297 342 38,000  Level Jacksonville Center
07:16PM 28.4356 -84.1886 330° Northwest 302 348 38,000  Level Jacksonville Center
07:17PM 28.5061 -84.2344 330° Northwest 297 342 38,000  Level Jacksonville Center
07:18PM 28.5744 -84.2803 330° Northwest 297 342 38,000  Level Jacksonville Center
07:19PM 28.6469 -84.3286 329° Northwest 297 342 38,000  Level Jacksonville Center
07:20PM 28.7131 -84.3744 330° Northwest 297 342 38,000  Level Jacksonville Center
07:21PM 28.7836 -84.4206 328° Northwest 297 342 38,000  Level Jacksonville Center
07:22PM 28.8561 -84.4714 329° Northwest 297 342 38,000  Level Jacksonville Center
07:23PM 28.9264 -84.5200 330° Northwest 297 342 38,000  Level Jacksonville Center
07:24PM 28.9967 -84.5661 329° Northwest 297 342 38,000  Level Jacksonville Center
07:25PM 29.0669 -84.6150 330° Northwest 297 342 38,000  Level Jacksonville Center
07:26PM 29.1394 -84.6636 329° Northwest 297 342 38,000  Level Jacksonville Center
07:27PM 29.2097 -84.7125 329° Northwest 297 342 38,000  Level Jacksonville Center
07:28PM 29.2800 -84.7614 329° Northwest 297 342 38,000  Level Jacksonville Center
07:29PM 29.3503 -84.8106 328° Northwest 297 342 38,000  Level Jacksonville Center
07:30PM 29.4206 -84.8619 331° Northwest 297 342 38,000  Level Jacksonville Center
07:31PM 29.4950 -84.9086 329° Northwest 297 342 38,000  Level Jacksonville Center
07:32PM 29.5672 -84.9581 327° Northwest 297 342 38,000  Level Jacksonville Center
07:33PM 29.6372 -85.0097 329° Northwest 297 342 38,000  Level Jacksonville Center
07:34PM 29.7094 -85.0589 328° Northwest 297 342 38,000  Level Jacksonville Center
07:35PM 29.7817 -85.1108 329° Northwest 297 342 38,000  Level Jacksonville Center
07:36PM 29.8539 -85.1603 329° Northwest 297 342 38,000  Level Jacksonville Center
07:37PM 29.9261 -85.2100 328° Northwest 297 342 38,000  Level Jacksonville Center
07:38PM 29.9961 -85.2597 329° Northwest 297 342 38,000  Level Jacksonville Center
07:39PM 30.0683 -85.3094 330° Northwest 297 342 38,000  Level Jacksonville Center
07:40PM 30.1383 -85.3569 323° Northwest 297 342 38,000  Level Jacksonville Center
07:41PM 30.2142 -85.4236 337° Northwest 302 348 38,000  Level Jacksonville Center
07:42PM 30.2803 -85.4567 328° Northwest 302 348 38,000  Level Jacksonville Center
07:43PM 30.3525 -85.5092 328° Northwest 302 348 38,000  Level Jacksonville Center
07:44PM 30.4222 -85.5592 329° Northwest 297 342 38,000  Level Jacksonville Center
07:45PM 30.4944 -85.6094 327° Northwest 297 342 38,000  Level Jacksonville Center
07:46PM 30.5622 -85.6597 330° Northwest 297 342 38,000  Level Jacksonville Center
07:47PM 30.6361 -85.7100 329° Northwest 297 342 38,000  Level Jacksonville Center
07:48PM 30.7081 -85.7606 327° Northwest 297 342 38,000  Level Jacksonville Center
07:49PM 30.7758 -85.8108 328° Northwest 297 342 38,000  Level Jacksonville Center
07:50PM 30.8478 -85.8639 329° Northwest 297 342 38,000  Level Jacksonville Center
07:52PM 31.0217 -85.9867 327° Northwest 301 346 38,000  Level Atlanta Center
07:53PM 31.0939 -86.0417 329° Northwest 301 346 38,000  Level Atlanta Center
07:54PM 31.1661 -86.0917 327° Northwest 301 346 38,000  Level Atlanta Center
07:55PM 31.2361 -86.1444 329° Northwest 301 346 38,000 -600 Level Atlanta Center
07:56PM 31.3103 -86.1972 329° Northwest 301 346 36,800 -1,200 Descending Atlanta Center
07:57PM 31.3908 -86.2550 328° Northwest 328 377 35,700 -1,020 Descending Atlanta Center
07:58PM 31.4711 -86.3128 328° Northwest 340 391 34,800 -960 Descending Atlanta Center
07:59PM 31.5514 -86.3708 328° Northwest 340 391 33,800 -900 Descending Atlanta Center
08:00PM 31.6214 -86.4214 328° Northwest 340 391 33,000 -900 Descending Atlanta Center
08:01PM 31.7017 -86.4797 328° Northwest 340 391 32,000 -1,020 Descending Atlanta Center
08:02PM 31.7797 -86.5381 329° Northwest 335 386 31,000 -1,200 Descending Atlanta Center
08:03PM 31.8581 -86.5939 328° Northwest 340 391 29,600 -1,500 Descending Atlanta Center
08:04PM 31.9381 -86.6525 328° Northwest 340 391 28,100 -1,500 Descending Atlanta Center
08:05PM 32.0203 -86.7139 328° Northwest 333 383 26,600 -1,500 Descending Atlanta Center
08:06PM 32.0942 -86.7675 328° Northwest 311 358 25,100 -1,500 Descending Atlanta Center
08:07PM 32.1683 -86.8214 328° Northwest 311 358 23,600 -1,500 Descending Atlanta Center
08:08PM 32.2400 -86.8750 327° Northwest 311 358 22,200 -1,500 Descending Atlanta Center
08:09PM 32.3078 -86.9264 329° Northwest 300 345 20,700 -1,500 Descending Atlanta Center
08:10PM 32.3775 -86.9753 328° Northwest 295 339 19,200 -1,320 Descending Atlanta Center
08:11PM 32.4431 -87.0244 326° Northwest 295 339 18,100 -600 Descending Atlanta Center
08:12PM 32.4983 -87.0681 329° Northwest 282 325 18,000 -600 Descending Atlanta Center
08:13PM 32.5661 -87.1172 329° Northwest 276 318 16,900 -1,440 Descending Atlanta Center
08:14PM 32.6378 -87.1689 318° Northwest 281 323 15,200 -1,860 Descending Atlanta Center
08:14PM 32.6642 -87.1972 336° Northwest 297 342 14,400 -1,920 Descending Atlanta Center
08:15PM 32.7033 -87.2183 322° Northwest 281 323 13,300 -1,980 Descending Atlanta Center
08:15PM 32.7278 -87.2414 330° Northwest 286 329 12,600 -1,920 Descending Atlanta Center
08:16PM 32.7689 -87.2700 325° Northwest 276 318 11,400 -1,920 Descending Atlanta Center
08:16PM 32.7933 -87.2906 332° Northwest 281 323 10,700 -2,040 Descending Atlanta Center
08:17PM 32.8344 -87.3169 316° Northwest 276 318 9,400 -2,040 Descending Atlanta Center
08:17PM 32.8567 -87.3425 335° Northwest 269 310 8,700 -1,920 Descending Atlanta Center
08:18PM 32.8997 -87.3664 314° West 266 306 7,500 -1,920 Descending Atlanta Center
08:18PM 32.9139 -87.3842 334° Northwest 243 280 6,800 -2,040 Descending Atlanta Center
08:19PM 32.9550 -87.4081 318° Northwest 246 283 5,500 -2,040 Descending Atlanta Center
08:19PM 32.9692 -87.4233 333° Northwest 224 258 4,800 -1,740 Descending Atlanta Center
08:20PM 32.9958 -87.4394 322° Northwest 226 260 3,800 -1,920 Descending Atlanta Center
08:20PM 33.0203 -87.4625 316° Northwest 219 252 2,900 -840 Descending Atlanta Center
08:21PM 33.0628 -87.5114 310° West 191 220 2,600 -240 Descending Atlanta Center
08:23PM 33.0969 -87.5597 325° Northwest 172 198 2,400  Descending Atlanta Center
08:23PM 33.1317 -87.5886 295° West 299 344 2,600 -900 Climbing Atlanta Center
08:23PM 33.1336 -87.5936 315° West 184 212 1,600 -720 Descending Atlanta Center
08:25PM 33.1678 -87.6347 315° West 187 215 1,600  Level Atlanta Center